Time;durP1;ratioP1;P1;durP2;ratioP2;P2;SDS_P1;SDS_P2;PMS_P1;PMS_P2;Temp;Humidity;BMP_temperature;BMP_pressure;BME280_temperature;BME280_humidity;BME280_pressure;Samples;Min_cycle;Max_cycle;Signal;HPM_P1;HPM_P2
2023/05/04 00:00:07;;;;;;;29.20;18.98;;;7.80;99.90;;;;;;7607087;19;20018;-77
2023/05/04 00:02:39;;;;;;;27.08;17.45;;;7.80;99.90;;;;;;7589830;19;20026;-77
2023/05/04 00:05:12;;;;;;;27.50;17.90;;;7.70;99.90;;;;;;7589666;19;20802;-75
2023/05/04 00:07:44;;;;;;;24.83;17.70;;;7.70;99.90;;;;;;7597226;19;20065;-77
2023/05/04 00:10:16;;;;;;;29.88;18.05;;;7.70;99.90;;;;;;7591365;19;20220;-77
2023/05/04 00:12:51;;;;;;;26.08;17.90;;;7.70;99.90;;;;;;7595482;19;20123;-78
2023/05/04 00:15:29;;;;;;;28.50;18.98;;;7.70;99.90;;;;;;7594093;19;20538;-77
2023/05/04 00:18:02;;;;;;;28.45;18.65;;;7.60;99.90;;;;;;7602114;19;20026;-77
2023/05/04 00:20:34;;;;;;;30.33;17.80;;;7.60;99.90;;;;;;7595373;19;21154;-77
2023/05/04 00:23:06;;;;;;;24.77;17.17;;;7.60;99.90;;;;;;7590354;19;20610;-76
2023/05/04 00:25:39;;;;;;;28.30;17.63;;;7.50;99.90;;;;;;7601567;19;20056;-76
2023/05/04 00:28:11;;;;;;;25.48;17.70;;;7.50;99.90;;;;;;7610210;19;20010;-76
2023/05/04 00:30:44;;;;;;;27.85;17.77;;;7.40;99.90;;;;;;7597667;19;20006;-77
2023/05/04 00:33:16;;;;;;;30.77;18.27;;;7.40;99.90;;;;;;7597628;19;20018;-77
2023/05/04 00:35:49;;;;;;;27.35;17.02;;;7.40;99.90;;;;;;7601231;19;20010;-76
2023/05/04 00:38:22;;;;;;;27.67;17.63;;;7.40;99.90;;;;;;7599493;19;20018;-75
2023/05/04 00:40:54;;;;;;;27.30;17.20;;;7.30;99.90;;;;;;7599324;19;20018;-78
2023/05/04 00:43:26;;;;;;;24.95;17.30;;;7.30;99.90;;;;;;7620028;19;20023;-77
2023/05/04 00:45:58;;;;;;;25.13;16.67;;;7.30;99.90;;;;;;7627183;19;20017;-77
2023/05/04 00:48:31;;;;;;;32.08;18.50;;;7.20;99.90;;;;;;7617495;19;20029;-77
2023/05/04 00:51:05;;;;;;;29.55;17.40;;;7.20;99.90;;;;;;7610700;19;21243;-78
2023/05/04 00:53:38;;;;;;;24.33;16.83;;;7.20;99.90;;;;;;7605460;19;20018;-77
2023/05/04 00:56:11;;;;;;;27.60;17.35;;;7.20;99.90;;;;;;7609007;19;20131;-77
2023/05/04 00:58:44;;;;;;;28.17;18.15;;;7.20;99.90;;;;;;7605587;19;20014;-77
2023/05/04 01:01:17;;;;;;;30.42;19.60;;;7.10;99.90;;;;;;7601583;19;20019;-77
2023/05/04 01:03:54;;;;;;;28.65;18.15;;;7.20;99.90;;;;;;7611428;19;20094;-76
2023/05/04 01:06:51;;;;;;;29.73;18.50;;;7.20;99.90;;;;;;7605893;19;20030;-76
2023/05/04 01:09:34;;;;;;;26.55;17.83;;;7.10;99.90;;;;;;7601818;19;20018;-77
2023/05/04 01:12:16;;;;;;;31.73;18.95;;;7.10;99.90;;;;;;7603259;19;20101;-77
2023/05/04 01:14:52;;;;;;;31.88;18.75;;;7.00;99.90;;;;;;7602875;19;20026;-76
2023/05/04 01:17:35;;;;;;;27.65;18.50;;;7.00;99.90;;;;;;7608436;19;20010;-76
2023/05/04 01:20:08;;;;;;;34.85;20.77;;;7.10;99.90;;;;;;7613796;19;20017;-77
2023/05/04 01:22:41;;;;;;;31.63;20.45;;;7.00;99.90;;;;;;7610121;19;20026;-76
2023/05/04 01:25:13;;;;;;;34.38;20.08;;;7.00;99.90;;;;;;7622171;19;20022;-75
2023/05/04 01:27:55;;;;;;;27.83;18.83;;;7.10;99.90;;;;;;7618522;19;20022;-78
2023/05/04 01:30:43;;;;;;;39.33;23.73;;;7.00;99.90;;;;;;7607602;19;20022;-77
2023/05/04 01:33:17;;;;;;;33.92;20.83;;;7.00;99.90;;;;;;7610512;19;20010;-75
2023/05/04 01:35:50;;;;;;;36.30;21.33;;;7.00;99.90;;;;;;7621986;19;20018;-76
2023/05/04 01:38:22;;;;;;;33.85;20.50;;;7.00;99.90;;;;;;7605957;19;20018;-76
2023/05/04 01:40:57;;;;;;;32.50;20.42;;;7.00;99.90;;;;;;7598154;19;20022;-79
2023/05/04 01:43:31;;;;;;;31.73;19.25;;;6.90;99.90;;;;;;7595866;19;20026;-76
2023/05/04 01:46:03;;;;;;;33.40;18.83;;;6.90;99.90;;;;;;7600286;19;20086;-78
2023/05/04 01:48:39;;;;;;;28.88;17.63;;;6.90;99.90;;;;;;7605674;19;20024;-77
2023/05/04 01:51:14;;;;;;;27.00;17.15;;;6.90;99.90;;;;;;7598323;19;20899;-77
2023/05/04 01:53:47;;;;;;;28.80;18.40;;;6.90;99.90;;;;;;7601875;19;20018;-77
2023/05/04 01:56:20;;;;;;;34.35;20.90;;;6.80;99.90;;;;;;7591202;19;20021;-78
2023/05/04 01:58:52;;;;;;;32.30;21.05;;;6.80;99.90;;;;;;7590474;19;20074;-77
2023/05/04 02:01:25;;;;;;;32.45;19.60;;;6.80;99.90;;;;;;7590247;19;20014;-77
2023/05/04 02:04:04;;;;;;;35.60;21.58;;;6.70;99.90;;;;;;7581170;19;20029;-77
2023/05/04 02:06:40;;;;;;;30.27;19.63;;;6.70;99.90;;;;;;7581581;19;20018;-77
2023/05/04 02:09:16;;;;;;;31.33;18.95;;;6.60;99.90;;;;;;7580502;19;20037;-77
2023/05/04 02:11:54;;;;;;;29.42;19.85;;;6.70;99.90;;;;;;7583506;19;20028;-78
2023/05/04 02:14:27;;;;;;;36.35;22.70;;;6.60;99.90;;;;;;7585008;19;20018;-77
2023/05/04 02:16:59;;;;;;;35.05;21.33;;;6.60;99.90;;;;;;7586296;19;20014;-76
2023/05/04 02:19:31;;;;;;;33.17;20.98;;;6.50;99.90;;;;;;7565133;19;20029;-77
2023/05/04 02:22:03;;;;;;;29.48;19.20;;;6.50;99.90;;;;;;7569600;19;20034;-77
2023/05/04 02:24:35;;;;;;;36.95;22.77;;;6.50;99.90;;;;;;7590695;19;20019;-77
2023/05/04 02:27:10;;;;;;;34.35;22.45;;;6.40;99.90;;;;;;7595753;19;20018;-77
2023/05/04 02:29:46;;;;;;;39.40;22.92;;;6.40;99.90;;;;;;7593704;19;20029;-77
2023/05/04 02:32:18;;;;;;;37.80;23.13;;;6.30;99.90;;;;;;7600239;19;20034;-78
2023/05/04 02:34:51;;;;;;;33.85;21.77;;;6.40;99.90;;;;;;7597713;19;20017;-77
2023/05/04 02:37:25;;;;;;;32.58;20.52;;;6.30;99.90;;;;;;7591661;19;20023;-77
2023/05/04 02:39:57;;;;;;;33.72;20.80;;;6.30;99.90;;;;;;7594881;19;21153;-77
2023/05/04 02:42:31;;;;;;;33.13;20.27;;;6.30;99.90;;;;;;7578437;19;21250;-77
2023/05/04 02:45:04;;;;;;;42.28;21.17;;;6.30;99.90;;;;;;7588083;19;20492;-78
2023/05/04 02:47:36;;;;;;;34.90;20.97;;;6.30;99.90;;;;;;7578043;19;20006;-76
2023/05/04 02:50:09;;;;;;;36.77;21.37;;;6.20;99.90;;;;;;7581962;19;20022;-79
2023/05/04 02:52:41;;;;;;;37.60;21.25;;;6.20;99.90;;;;;;7594823;19;20721;-78
2023/05/04 02:55:14;;;;;;;33.05;19.70;;;6.10;99.90;;;;;;7586522;19;20097;-78
2023/05/04 02:57:47;;;;;;;35.88;20.80;;;6.10;99.90;;;;;;7587015;19;20557;-77
2023/05/04 03:00:19;;;;;;;37.58;22.70;;;6.00;99.90;;;;;;7592990;19;20048;-77
2023/05/04 03:02:53;;;;;;;32.50;19.85;;;6.00;99.90;;;;;;7569407;19;20007;-77
2023/05/04 03:05:25;;;;;;;;;;;6.00;99.90;;;;;;7602690;19;20539;-78
2023/05/04 03:07:58;;;;;;;33.22;20.15;;;6.00;99.90;;;;;;7595122;19;20598;-78
2023/05/04 03:10:30;;;;;;;32.67;19.17;;;6.00;99.90;;;;;;7601262;19;21035;-76
2023/05/04 03:13:05;;;;;;;33.22;19.48;;;6.00;99.90;;;;;;7619395;19;20026;-76
2023/05/04 03:15:40;;;;;;;34.70;20.48;;;5.90;99.90;;;;;;7636754;19;20769;-78
2023/05/04 03:18:14;;;;;;;35.60;20.85;;;5.80;99.90;;;;;;7621055;19;20029;-75
2023/05/04 03:20:47;;;;;;;30.05;18.55;;;5.70;99.90;;;;;;7626498;19;20034;-76
2023/05/04 03:23:25;;;;;;;33.97;19.20;;;5.70;99.90;;;;;;7615353;19;20528;-76
2023/05/04 03:26:02;;;;;;;30.92;19.13;;;5.70;99.90;;;;;;7592566;19;21445;-76
2023/05/04 03:28:41;;;;;;;39.30;22.67;;;5.80;99.90;;;;;;7601813;19;20018;-78
2023/05/04 03:31:21;;;;;;;36.05;20.88;;;5.70;99.90;;;;;;7598680;19;20010;-76
2023/05/04 03:34:00;;;;;;;32.22;20.55;;;5.70;99.90;;;;;;7599666;19;20014;-76
2023/05/04 03:36:48;;;;;;;36.67;20.92;;;5.80;99.90;;;;;;7615801;19;20022;-76
2023/05/04 03:39:24;;;;;;;35.38;21.85;;;5.80;99.90;;;;;;7588494;19;20014;-77
2023/05/04 03:42:03;;;;;;;32.83;20.92;;;5.80;99.90;;;;;;7585606;19;20097;-76
2023/05/04 03:44:36;;;;;;;41.85;21.38;;;5.60;99.90;;;;;;7543738;19;21036;-79
2023/05/04 03:47:24;;;;;;;34.55;21.48;;;5.60;99.90;;;;;;7555908;19;20110;-78
2023/05/04 03:50:06;;;;;;;33.78;21.55;;;5.60;99.90;;;;;;7572923;19;20015;-79
2023/05/04 03:52:46;;;;;;;35.78;20.92;;;5.60;99.90;;;;;;7567068;19;20456;-79
2023/05/04 03:55:46;;;;;;;34.40;21.60;;;5.60;99.90;;;;;;7581463;19;20686;-79
2023/05/04 03:58:43;;;;;;;;;;;;;;;;;;;;;
2023/05/04 04:01:56;;;;;;;38.38;22.10;;;5.60;99.90;;;;;;7578366;19;20729;-76
2023/05/04 04:04:45;;;;;;;36.22;22.20;;;5.60;99.90;;;;;;7579514;19;20021;-78
2023/05/04 04:07:29;;;;;;;35.25;21.73;;;5.60;99.90;;;;;;7583239;19;20002;-78
2023/05/04 04:10:30;;;;;;;44.28;23.50;;;5.50;99.90;;;;;;7573970;19;20259;-78
2023/05/04 04:13:08;;;;;;;41.00;23.52;;;5.40;99.90;;;;;;7580057;19;20534;-79
2023/05/04 04:16:11;;;;;;;39.88;23.00;;;5.40;99.90;;;;;;7576836;19;20019;-79
2023/05/04 04:19:39;;;;;;;40.92;23.52;;;5.40;99.90;;;;;;7604702;19;20090;-78
2023/05/04 04:22:47;;;;;;;36.88;21.23;;;5.40;99.90;;;;;;7634796;19;20129;-78
2023/05/04 04:26:17;;;;;;;35.83;20.65;;;5.40;99.90;;;;;;7629310;19;20006;-79
2023/05/04 04:29:56;;;;;;;36.45;21.27;;;5.50;99.90;;;;;;7580179;19;20014;-78
2023/05/04 04:32:56;;;;;;;35.90;20.73;;;5.50;99.90;;;;;;7573993;19;20007;-79
2023/05/04 04:36:37;;;;;;;41.75;22.10;;;5.50;99.90;;;;;;7562769;19;21080;-77
2023/05/04 04:39:25;;;;;;;41.88;21.92;;;5.50;99.90;;;;;;7595966;19;20391;-78
2023/05/04 04:42:20;;;;;;;38.53;22.65;;;5.60;99.90;;;;;;7575195;19;20048;-78
2023/05/04 04:45:04;;;;;;;39.30;21.48;;;5.60;99.90;;;;;;7594614;19;21081;-78
2023/05/04 04:47:40;;;;;;;33.50;21.23;;;5.70;99.90;;;;;;7591230;19;20022;-78
2023/05/04 04:50:32;;;;;;;34.13;21.05;;;5.70;99.90;;;;;;7588445;19;20094;-78
2023/05/04 04:53:10;;;;;;;37.55;22.25;;;5.80;99.90;;;;;;7577012;19;20022;-79
2023/05/04 04:55:47;;;;;;;41.03;22.92;;;5.70;99.90;;;;;;7582157;19;20076;-79
2023/05/04 04:58:27;;;;;;;36.78;22.00;;;5.80;99.90;;;;;;7580882;19;20014;-79
2023/05/04 05:01:17;;;;;;;35.90;21.50;;;5.90;99.90;;;;;;7559004;19;21210;-78
2023/05/04 05:03:50;;;;;;;35.85;21.05;;;6.00;99.90;;;;;;7546187;19;20037;-76
2023/05/04 05:06:22;;;;;;;35.58;21.88;;;6.00;99.90;;;;;;7553401;19;20010;-76
2023/05/04 05:08:57;;;;;;;33.33;20.77;;;6.20;99.90;;;;;;7537178;19;20022;-76
2023/05/04 05:11:33;;;;;;;35.28;21.95;;;6.20;99.90;;;;;;7552848;19;20745;-75
2023/05/04 05:14:09;;;;;;;36.05;21.40;;;6.30;99.90;;;;;;7566252;19;20018;-76
2023/05/04 05:16:44;;;;;;;39.03;21.58;;;6.40;99.90;;;;;;7559655;19;20022;-77
2023/05/04 05:19:16;;;;;;;40.45;23.65;;;6.50;99.90;;;;;;7558658;19;20138;-77
2023/05/04 05:21:49;;;;;;;39.97;23.92;;;6.60;99.90;;;;;;7542566;19;20018;-76
2023/05/04 05:24:21;;;;;;;45.22;27.60;;;6.70;99.90;;;;;;7549685;19;20029;-77
2023/05/04 05:26:57;;;;;;;55.55;31.48;;;6.90;99.90;;;;;;7558440;19;20017;-78
2023/05/04 05:29:37;;;;;;;56.85;29.08;;;7.00;99.90;;;;;;7554883;19;20102;-77
2023/05/04 05:32:12;;;;;;;50.20;28.27;;;7.10;99.90;;;;;;7565118;19;21327;-77
2023/05/04 05:34:45;;;;;;;46.77;28.80;;;7.30;99.90;;;;;;7555375;19;20060;-77
2023/05/04 05:37:19;;;;;;;52.95;30.85;;;7.40;99.90;;;;;;7591797;19;20518;-78
2023/05/04 05:39:54;;;;;;;50.38;29.08;;;7.60;99.90;;;;;;7588719;19;20018;-77
2023/05/04 05:42:31;;;;;;;42.22;27.08;;;7.80;99.90;;;;;;7587147;19;20372;-77
2023/05/04 05:45:08;;;;;;;44.35;25.60;;;7.90;99.90;;;;;;7572904;19;20019;-77
2023/05/04 05:47:40;;;;;;;;;;;8.10;99.90;;;;;;7585889;19;20015;-77
2023/05/04 05:50:12;;;;;;;42.78;24.40;;;8.30;99.90;;;;;;7617807;19;20018;-78
2023/05/04 05:52:45;;;;;;;42.17;25.20;;;8.50;99.90;;;;;;7606894;19;20022;-80
2023/05/04 05:55:17;;;;;;;35.00;23.42;;;8.60;99.90;;;;;;7635022;19;20011;-79
2023/05/04 05:57:49;;;;;;;35.10;21.77;;;8.70;99.90;;;;;;7605564;19;20010;-79
2023/05/04 06:00:23;;;;;;;36.88;23.45;;;8.80;99.90;;;;;;7596671;19;20014;-77
2023/05/04 06:02:57;;;;;;;38.33;23.25;;;8.90;99.90;;;;;;7584851;19;20560;-80
2023/05/04 06:05:29;;;;;;;33.17;21.55;;;9.00;99.90;;;;;;7603288;19;20692;-79
2023/05/04 06:08:02;;;;;;;32.75;21.20;;;9.00;99.90;;;;;;7595496;19;20026;-77
2023/05/04 06:10:35;;;;;;;34.78;21.02;;;9.20;99.90;;;;;;7594582;19;20866;-79
2023/05/04 06:13:07;;;;;;;32.75;20.70;;;9.30;99.90;;;;;;7585085;19;20030;-78
2023/05/04 06:15:40;;;;;;;32.63;19.63;;;9.40;99.90;;;;;;7580881;19;20018;-78
2023/05/04 06:18:12;;;;;;;29.27;19.00;;;9.50;99.90;;;;;;7602574;19;20010;-78
2023/05/04 06:20:44;;;;;;;29.30;18.95;;;9.50;99.90;;;;;;7582932;19;20993;-78
2023/05/04 06:23:17;;;;;;;30.77;20.17;;;9.60;99.90;;;;;;7595334;19;20039;-77
2023/05/04 06:25:49;;;;;;;31.10;18.40;;;9.70;99.90;;;;;;7587332;19;20022;-77
2023/05/04 06:28:21;;;;;;;31.98;19.33;;;9.90;99.90;;;;;;7601160;19;20013;-77
2023/05/04 06:30:54;;;;;;;30.65;18.20;;;10.00;99.90;;;;;;7571570;19;20398;-77
2023/05/04 06:33:26;;;;;;;30.77;18.92;;;10.10;99.90;;;;;;7602462;19;20430;-78
2023/05/04 06:35:58;;;;;;;26.58;17.95;;;10.30;99.90;;;;;;7591072;19;20903;-78
2023/05/04 06:38:31;;;;;;;26.40;17.98;;;10.50;99.90;;;;;;7563151;19;20082;-80
2023/05/04 06:41:05;;;;;;;26.02;17.38;;;10.60;99.90;;;;;;7581203;19;20022;-77
2023/05/04 06:43:40;;;;;;;29.80;17.65;;;10.80;99.90;;;;;;7595389;19;20021;-77
2023/05/04 06:46:13;;;;;;;24.25;15.75;;;10.80;99.90;;;;;;7574914;19;20038;-78
2023/05/04 06:48:45;;;;;;;27.65;17.73;;;10.90;99.90;;;;;;7597296;19;20059;-78
2023/05/04 06:51:17;;;;;;;22.67;16.65;;;11.00;99.90;;;;;;7586705;19;20765;-80
2023/05/04 06:53:50;;;;;;;23.08;16.80;;;11.20;99.90;;;;;;7589994;19;20014;-79
2023/05/04 06:56:22;;;;;;;20.92;15.70;;;11.30;99.90;;;;;;7602277;19;20010;-78
2023/05/04 06:58:55;;;;;;;24.35;14.82;;;11.40;99.90;;;;;;7609750;19;20039;-77
2023/05/04 07:01:27;;;;;;;24.38;15.32;;;11.60;99.90;;;;;;7578163;19;20579;-79
2023/05/04 07:03:59;;;;;;;22.25;14.52;;;11.70;99.90;;;;;;7580253;19;21451;-78
2023/05/04 07:06:32;;;;;;;18.73;13.75;;;11.90;99.90;;;;;;7587893;19;20102;-78
2023/05/04 07:09:05;;;;;;;17.25;13.13;;;12.00;99.90;;;;;;7587894;19;20467;-78
2023/05/04 07:11:37;;;;;;;15.93;11.98;;;12.20;99.90;;;;;;7596478;19;20138;-78
2023/05/04 07:14:10;;;;;;;15.52;11.88;;;12.30;99.90;;;;;;7579062;19;20030;-77
2023/05/04 07:16:42;;;;;;;16.85;11.48;;;12.50;99.90;;;;;;7607979;19;20141;-77
2023/05/04 07:19:14;;;;;;;14.95;11.43;;;12.70;99.90;;;;;;7593695;19;20661;-77
2023/05/04 07:21:47;;;;;;;15.52;12.07;;;12.80;99.90;;;;;;7603969;19;20034;-79
2023/05/04 07:24:19;;;;;;;15.45;11.57;;;12.90;99.90;;;;;;7606080;19;20738;-79
2023/05/04 07:26:52;;;;;;;17.50;11.38;;;13.00;99.90;;;;;;7615768;19;20014;-79
2023/05/04 07:29:25;;;;;;;15.18;10.75;;;13.10;99.90;;;;;;7626372;19;20027;-79
2023/05/04 07:31:57;;;;;;;16.02;11.48;;;13.20;99.90;;;;;;7620557;19;20628;-78
2023/05/04 07:34:30;;;;;;;15.18;10.60;;;13.30;99.90;;;;;;7652238;19;20011;-78
2023/05/04 07:37:17;;;;;;;19.55;10.85;;;13.40;99.90;;;;;;7624355;19;20026;-78
2023/05/04 07:39:50;;;;;;;17.55;10.60;;;13.50;99.90;;;;;;7628072;19;20014;-80
2023/05/04 07:42:23;;;;;;;14.45;10.05;;;13.70;99.90;;;;;;7632181;19;20010;-78
2023/05/04 07:44:55;;;;;;;17.42;10.82;;;13.80;99.90;;;;;;7635782;19;21144;-79
2023/05/04 07:47:27;;;;;;;17.52;10.48;;;13.90;99.90;;;;;;7624254;19;20476;-78
2023/05/04 07:49:59;;;;;;;16.63;11.10;;;14.00;99.90;;;;;;7613117;19;20014;-78
2023/05/04 07:52:32;;;;;;;14.90;10.70;;;14.10;99.90;;;;;;7606531;19;21687;-80
2023/05/04 07:55:06;;;;;;;12.50;10.60;;;14.20;99.90;;;;;;7599554;19;20060;-77
2023/05/04 07:57:39;;;;;;;15.45;10.52;;;14.20;99.90;;;;;;7620528;19;20022;-78
2023/05/04 08:00:11;;;;;;;12.48;9.52;;;14.40;99.90;;;;;;7622899;19;20046;-78
2023/05/04 08:02:48;;;;;;;13.32;10.23;;;14.60;99.90;;;;;;7617870;19;20011;-78
2023/05/04 08:05:21;;;;;;;13.85;9.88;;;14.70;98.60;;;;;;7628149;19;20407;-79
2023/05/04 08:07:53;;;;;;;13.15;8.95;;;14.80;97.10;;;;;;7629884;19;20613;-79
2023/05/04 08:10:26;;;;;;;12.65;9.77;;;14.80;96.70;;;;;;7625060;19;20032;-78
2023/05/04 08:12:58;;;;;;;12.27;10.23;;;14.80;96.30;;;;;;7645286;19;20011;-78
2023/05/04 08:15:31;;;;;;;11.70;8.82;;;14.90;94.30;;;;;;7631805;19;20546;-79
2023/05/04 08:18:03;;;;;;;10.00;7.77;;;14.90;94.30;;;;;;7625719;19;20021;-78
2023/05/04 08:20:36;;;;;;;10.73;8.52;;;14.90;95.00;;;;;;7627693;19;20018;-77
2023/05/04 08:23:09;;;;;;;12.90;8.43;;;15.00;92.70;;;;;;7628559;19;20034;-78
2023/05/04 08:25:41;;;;;;;12.88;8.10;;;14.90;92.60;;;;;;7623545;19;20094;-78
2023/05/04 08:28:14;;;;;;;13.65;7.70;;;15.00;91.50;;;;;;7631554;19;20031;-78
2023/05/04 08:30:46;;;;;;;11.15;8.52;;;15.10;91.30;;;;;;7628438;19;20027;-78
2023/05/04 08:33:18;;;;;;;10.15;8.10;;;15.10;90.50;;;;;;7633122;19;20021;-77
2023/05/04 08:35:52;;;;;;;13.23;8.55;;;15.10;89.40;;;;;;7625688;19;20015;-78
2023/05/04 08:38:25;;;;;;;12.35;7.65;;;15.10;89.40;;;;;;7630352;19;20086;-78
2023/05/04 08:41:00;;;;;;;12.68;8.93;;;15.10;89.40;;;;;;7623799;19;20018;-78
2023/05/04 08:43:36;;;;;;;10.88;8.18;;;15.30;87.70;;;;;;7630828;19;20509;-78
2023/05/04 08:46:09;;;;;;;12.13;7.90;;;15.40;86.90;;;;;;7634878;19;20022;-78
2023/05/04 08:48:45;;;;;;;10.15;7.82;;;15.50;86.90;;;;;;7629184;19;21084;-77
2023/05/04 08:51:18;;;;;;;12.00;8.63;;;15.40;85.60;;;;;;7610242;19;20019;-77
2023/05/04 08:53:51;;;;;;;12.45;9.55;;;15.40;85.10;;;;;;7616665;19;20006;-77
2023/05/04 08:56:24;;;;;;;11.17;8.37;;;15.50;87.00;;;;;;7614191;19;20007;-77
2023/05/04 08:59:00;;;;;;;12.10;9.05;;;15.60;88.20;;;;;;7611892;19;20280;-78
2023/05/04 09:01:35;;;;;;;9.93;8.15;;;15.70;88.40;;;;;;7609467;19;20014;-77
2023/05/04 09:04:07;;;;;;;12.43;9.15;;;15.70;88.60;;;;;;7608480;19;20010;-78
2023/05/04 09:06:39;;;;;;;14.95;8.70;;;15.70;87.50;;;;;;7619160;19;20046;-79
2023/05/04 09:09:13;;;;;;;12.90;9.90;;;15.70;87.00;;;;;;7617113;19;20022;-79
2023/05/04 09:11:45;;;;;;;11.80;10.00;;;15.70;87.50;;;;;;7624899;19;20018;-79
2023/05/04 09:14:18;;;;;;;13.10;9.53;;;15.70;87.00;;;;;;7613603;19;20456;-79
2023/05/04 09:16:50;;;;;;;14.88;9.55;;;15.80;87.90;;;;;;7605910;19;20065;-77
2023/05/04 09:19:23;;;;;;;12.48;9.73;;;15.90;85.30;;;;;;7615260;19;20051;-79
2023/05/04 09:21:55;;;;;;;14.60;9.52;;;15.90;86.00;;;;;;7610649;19;20033;-77
2023/05/04 09:24:29;;;;;;;13.90;9.77;;;16.10;84.50;;;;;;7605414;19;20019;-77
2023/05/04 09:27:28;;;;;;;12.75;10.07;;;16.10;83.60;;;;;;7607233;19;20026;-80
2023/05/04 09:30:00;;;;;;;15.18;9.60;;;16.00;85.80;;;;;;7597553;19;20029;-77
2023/05/04 09:32:44;;;;;;;11.93;8.05;;;16.10;83.80;;;;;;7604692;19;20014;-78
2023/05/04 09:35:17;;;;;;;13.15;8.77;;;16.10;81.30;;;;;;7614747;19;20038;-78
2023/05/04 09:38:04;;;;;;;12.43;8.52;;;16.30;79.40;;;;;;7625660;19;20024;-77
2023/05/04 09:40:43;;;;;;;10.77;8.02;;;16.30;81.60;;;;;;7617511;19;20023;-78
2023/05/04 09:43:15;;;;;;;14.23;8.25;;;16.40;81.90;;;;;;7614093;19;20022;-77
2023/05/04 09:45:48;;;;;;;10.60;7.70;;;16.50;79.80;;;;;;7606119;19;20029;-77
2023/05/04 09:48:25;;;;;;;8.70;7.43;;;16.60;78.10;;;;;;7600119;19;20014;-77
2023/05/04 09:50:59;;;;;;;8.88;7.50;;;16.60;79.90;;;;;;7581719;19;20021;-78
2023/05/04 09:53:34;;;;;;;12.88;8.60;;;16.70;82.20;;;;;;7588451;19;20018;-78
2023/05/04 09:56:27;;;;;;;11.43;7.25;;;16.70;77.50;;;;;;7595188;19;20487;-78
2023/05/04 09:59:00;;;;;;;8.52;6.88;;;16.70;77.70;;;;;;7585034;19;20013;-78
2023/05/04 10:01:33;;;;;;;11.70;7.50;;;16.70;72.80;;;;;;7602080;19;20090;-79
2023/05/04 10:04:05;;;;;;;8.05;6.70;;;16.80;75.00;;;;;;7598425;19;20010;-79
2023/05/04 10:06:39;;;;;;;10.98;7.20;;;16.90;74.00;;;;;;7608306;19;20488;-79
2023/05/04 10:09:12;;;;;;;11.90;7.53;;;17.00;75.60;;;;;;7597087;19;20021;-78
2023/05/04 10:11:44;;;;;;;11.93;7.97;;;17.10;73.80;;;;;;7606429;19;20026;-79
2023/05/04 10:14:17;;;;;;;8.68;6.95;;;17.00;74.20;;;;;;7589878;19;20014;-79
2023/05/04 10:17:14;;;;;;;9.18;7.15;;;17.00;74.60;;;;;;7595402;19;20507;-78
2023/05/04 10:20:11;;;;;;;11.68;8.00;;;17.10;73.10;;;;;;7599146;19;20054;-79
2023/05/04 10:22:54;;;;;;;8.30;6.80;;;17.20;71.70;;;;;;7583189;19;20452;-78
2023/05/04 10:26:01;;;;;;;9.02;7.15;;;17.20;68.60;;;;;;7596684;19;20027;-77
2023/05/04 10:28:47;;;;;;;9.18;6.30;;;17.20;69.20;;;;;;7586898;19;20040;-78
2023/05/04 10:31:20;;;;;;;10.77;7.03;;;17.30;71.40;;;;;;7584389;19;20010;-78
2023/05/04 10:33:52;;;;;;;12.60;8.43;;;17.30;72.60;;;;;;7592575;19;20524;-76
2023/05/04 10:36:38;;;;;;;11.60;7.38;;;17.50;72.00;;;;;;7575368;19;20466;-78
2023/05/04 10:39:20;;;;;;;9.30;6.85;;;17.50;71.30;;;;;;7595809;19;20038;-78
2023/05/04 10:42:00;;;;;;;11.63;6.70;;;17.50;71.40;;;;;;7615635;19;20059;-77
2023/05/04 10:44:36;;;;;;;8.80;7.43;;;17.60;68.60;;;;;;7645637;19;20015;-78
2023/05/04 10:47:09;;;;;;;9.07;6.55;;;17.60;68.90;;;;;;7648935;19;20046;-78
2023/05/04 10:49:41;;;;;;;8.70;6.78;;;17.70;70.10;;;;;;7636144;19;20019;-77
2023/05/04 10:52:17;;;;;;;12.18;6.80;;;17.80;68.30;;;;;;7616013;19;20018;-78
2023/05/04 10:54:58;;;;;;;12.68;6.22;;;17.80;68.60;;;;;;7617797;19;20029;-78
2023/05/04 10:57:30;;;;;;;9.90;6.68;;;18.10;68.20;;;;;;7644628;19;20039;-77
2023/05/04 11:00:03;;;;;;;12.35;6.95;;;18.40;67.80;;;;;;7608943;19;20043;-79
2023/05/04 11:02:36;;;;;;;10.57;7.05;;;18.80;68.10;;;;;;7640871;19;20011;-78
2023/05/04 11:05:08;;;;;;;9.80;6.22;;;19.20;65.30;;;;;;7620704;19;20006;-79
2023/05/04 11:07:41;;;;;;;10.32;6.93;;;19.50;65.00;;;;;;7613553;19;22056;-77
2023/05/04 11:10:22;;;;;;;8.82;5.53;;;19.80;62.10;;;;;;7604742;19;21250;-78
2023/05/04 11:13:01;;;;;;;7.97;5.82;;;20.10;62.30;;;;;;7597013;19;20011;-77
2023/05/04 11:15:46;;;;;;;8.05;5.47;;;20.20;60.50;;;;;;7591595;19;20022;-77
2023/05/04 11:18:29;;;;;;;11.45;5.88;;;20.40;60.70;;;;;;7593141;19;20094;-78
2023/05/04 11:21:02;;;;;;;15.13;6.43;;;20.80;60.60;;;;;;7588418;19;20048;-78
2023/05/04 11:23:35;;;;;;;7.20;6.43;;;21.10;58.80;;;;;;7601735;19;20291;-77
2023/05/04 11:26:08;;;;;;;8.30;6.60;;;21.20;58.90;;;;;;7601430;19;20019;-78
2023/05/04 11:28:40;;;;;;;10.68;6.10;;;21.30;58.90;;;;;;7607211;19;20279;-76
2023/05/04 11:31:17;;;;;;;8.63;6.78;;;21.50;58.90;;;;;;7619911;19;20026;-78
2023/05/04 11:33:51;;;;;;;8.55;6.43;;;21.50;56.80;;;;;;7609101;19;20106;-78
2023/05/04 11:36:24;;;;;;;8.02;5.35;;;21.50;57.20;;;;;;7596639;19;20060;-78
2023/05/04 11:38:57;;;;;;;7.88;6.28;;;21.70;58.00;;;;;;7609081;19;20086;-79
2023/05/04 11:41:29;;;;;;;9.70;6.05;;;22.00;56.10;;;;;;7602772;19;20010;-78
2023/05/04 11:44:03;;;;;;;7.10;5.68;;;22.20;55.90;;;;;;7592918;19;20018;-78
2023/05/04 11:46:35;;;;;;;13.57;7.63;;;22.40;56.30;;;;;;7596010;19;20969;-77
2023/05/04 11:49:07;;;;;;;9.48;6.22;;;22.40;54.60;;;;;;7589688;19;20471;-78
2023/05/04 11:51:40;;;;;;;6.20;5.10;;;22.40;54.10;;;;;;7610559;19;20034;-77
2023/05/04 11:54:20;;;;;;;8.57;5.97;;;22.40;53.50;;;;;;7602483;19;20022;-79
2023/05/04 11:56:52;;;;;;;7.07;5.45;;;22.50;53.40;;;;;;7611238;19;20025;-77
2023/05/04 11:59:24;;;;;;;8.30;6.10;;;22.60;52.60;;;;;;7610679;19;20015;-79
2023/05/04 12:01:57;;;;;;;8.73;6.07;;;22.40;52.90;;;;;;7608819;19;20010;-79
2023/05/04 12:04:32;;;;;;;8.65;6.45;;;22.40;54.60;;;;;;7612310;19;21075;-78
2023/05/04 12:07:08;;;;;;;8.57;5.95;;;22.60;53.40;;;;;;7589516;19;20040;-77
2023/05/04 12:09:45;;;;;;;7.15;5.70;;;22.90;52.80;;;;;;7603924;19;20022;-78
2023/05/04 12:12:20;;;;;;;6.32;5.45;;;22.80;51.70;;;;;;7562076;19;20018;-77
2023/05/04 12:14:55;;;;;;;7.97;5.03;;;22.70;50.60;;;;;;7587216;19;20034;-77
2023/05/04 12:17:39;;;;;;;10.48;6.07;;;22.90;51.80;;;;;;7585889;19;20104;-76
2023/05/04 12:20:23;;;;;;;8.32;5.85;;;23.10;52.20;;;;;;7578889;19;20025;-78
2023/05/04 12:23:05;;;;;;;11.40;6.13;;;23.10;52.00;;;;;;7585524;19;20019;-77
2023/05/04 12:25:37;;;;;;;8.00;5.55;;;23.40;50.70;;;;;;7565585;19;20048;-77
2023/05/04 12:28:25;;;;;;;12.40;6.18;;;23.30;50.00;;;;;;7586259;19;20482;-77
2023/05/04 12:30:58;;;;;;;10.05;6.65;;;23.40;51.50;;;;;;7602672;19;20023;-76
2023/05/04 12:33:31;;;;;;;7.57;6.55;;;23.50;50.60;;;;;;7607067;19;20018;-77
2023/05/04 12:36:04;;;;;;;7.10;5.63;;;23.50;50.30;;;;;;7607869;19;20964;-77
2023/05/04 12:38:37;;;;;;;12.00;6.13;;;23.80;51.10;;;;;;7575316;19;20127;-77
2023/05/04 12:41:10;;;;;;;8.15;5.90;;;24.10;49.80;;;;;;7531759;19;21074;-76
2023/05/04 12:43:42;;;;;;;6.43;5.57;;;24.10;49.00;;;;;;7561510;19;20056;-76
2023/05/04 12:46:20;;;;;;;8.70;5.70;;;24.20;49.20;;;;;;7570089;19;20026;-76
2023/05/04 12:48:52;;;;;;;7.03;5.18;;;24.20;48.60;;;;;;7561082;19;20456;-77
2023/05/04 12:51:25;;;;;;;6.75;5.53;;;24.30;50.50;;;;;;7552852;19;20102;-76
2023/05/04 12:53:57;;;;;;;7.07;6.05;;;24.20;47.70;;;;;;7560693;19;20943;-77
2023/05/04 12:56:31;;;;;;;8.50;5.50;;;24.20;49.20;;;;;;7572451;19;20014;-76
2023/05/04 12:59:03;;;;;;;10.90;6.15;;;24.40;50.80;;;;;;7575946;19;20017;-75
2023/05/04 13:01:35;;;;;;;6.03;5.43;;;24.60;49.50;;;;;;7569275;19;20015;-76
2023/05/04 13:04:08;;;;;;;7.47;5.80;;;24.80;48.30;;;;;;7563492;19;20006;-76
2023/05/04 13:06:41;;;;;;;9.88;5.63;;;24.90;48.10;;;;;;7544857;19;20015;-77
2023/05/04 13:09:14;;;;;;;9.05;5.53;;;25.00;48.20;;;;;;7563753;19;20011;-76
2023/05/04 13:11:47;;;;;;;12.10;5.97;;;25.20;47.40;;;;;;7590934;19;20010;-77
2023/05/04 13:14:58;;;;;;;;;;;;;;;;;;;;;
2023/05/04 13:17:37;;;;;;;9.43;5.93;;;25.30;46.80;;;;;;7599077;19;20010;-78
2023/05/04 13:20:18;;;;;;;8.82;5.38;;;25.20;47.50;;;;;;7588721;19;20022;-78
2023/05/04 13:23:36;;;;;;;7.18;5.55;;;25.30;47.70;;;;;;7562215;19;20011;-78
2023/05/04 13:26:09;;;;;;;6.60;5.88;;;25.40;47.10;;;;;;7599687;19;20011;-78
2023/05/04 13:28:42;;;;;;;9.50;5.70;;;25.20;47.10;;;;;;7614864;19;20073;-78